Datos. Málaga, Centro Meteorológico

Actualizado: sábado, 25 abril 2015 a las 23:32 hora oficial
Ind. climatológico: 6156X -  Altitud (m): 54
Latitud36° 43' 4'' N - Longitud4° 28' 54'' O -  PosiciónVer localización
MunicipioMálaga (Málaga) - Ver predicción
Registros - de
Fecha y hora oficial

 

Temp. (°C)

 

V. vien. (km/h)

 

Dir. viento

 

Racha (km/h)

 

Dir. racha

 

Prec. (mm)

 

Presión (hPa)

 

Tend. (hPa)

 

Humedad (%)

 

25/04/2015 23:00 20.1 7 9-NoroesteNoroeste 23 9-NoroesteNoroeste 0.0 1009.2 1.6 61
25/04/2015 22:00 21.0 8 9-NoroesteNoroeste 15 9-NoroesteNoroeste 0.0 1008.4 0.8 56
25/04/2015 21:00 21.9 6 9-NoroesteNoroeste 25 9-NoroesteNoroeste 0.0 1008.0 0.6 53
25/04/2015 20:00 23.2 9 9-NoroesteNoroeste 21 2-NorteNorte 0.0 1007.6 -0.2 47
25/04/2015 19:00 24.1 8 9-NoroesteNoroeste 23 9-NoroesteNoroeste 0.0 1007.6 -1.0 44
25/04/2015 18:00 24.8 10 9-NoroesteNoroeste 23 9-NoroesteNoroeste 0.0 1007.4 -1.6 43
25/04/2015 17:00 25.8 9 8-OesteOeste 20 8-OesteOeste 0.0 1007.8 -1.7 41
25/04/2015 16:00 24.0 8 8-OesteOeste 23 8-OesteOeste 0.0 1008.6 -1.6 44
25/04/2015 15:00 23.7 11 8-OesteOeste 27 8-OesteOeste 0.0 1009.0 -1.5 46
25/04/2015 14:00 24.3 13 8-OesteOeste 30 8-OesteOeste 0.0 1009.5 -1.0 46
25/04/2015 13:00 22.8 14 8-OesteOeste 33 8-OesteOeste 0.0 1010.2 -0.8 49
25/04/2015 12:00 21.9 15 8-OesteOeste 35 8-OesteOeste 0.0 1010.5 -0.6 52
25/04/2015 11:00 20.9 15 8-OesteOeste 31 8-OesteOeste 0.0 1010.5 -0.2 55
25/04/2015 10:00 19.3 15 8-OesteOeste 28 8-OesteOeste 0.0 1011.0 0.8 56
25/04/2015 09:00 17.2 15 8-OesteOeste 27 8-OesteOeste 0.0 1011.1 1.2 58
25/04/2015 08:00 16.7 14 8-OesteOeste 29 8-OesteOeste 0.0 1010.7 0.7 55
25/04/2015 07:00 16.9 15 8-OesteOeste 30 8-OesteOeste 0.0 1010.2 -0.1 52
25/04/2015 06:00 16.6 15 8-OesteOeste 27 8-OesteOeste 0.0 1009.9 -0.6 49
25/04/2015 05:00 17.2 13 8-OesteOeste 26 9-NoroesteNoroeste 0.0 1010.0 -0.8 46
25/04/2015 04:00 17.3 13 8-OesteOeste 25 8-OesteOeste 0.0 1010.3 -0.5 46
25/04/2015 03:00 17.1 11 8-OesteOeste 26 9-NoroesteNoroeste 0.0 1010.5 -0.4 56
25/04/2015 02:00 17.2 5 9-NoroesteNoroeste 19 8-OesteOeste 0.0 1010.8 0.3 66
25/04/2015 01:00 17.6 13 8-OesteOeste 18 8-OesteOeste 0.0 1010.8 0.9 74
25/04/2015 00:00 16.8 6 9-NoroesteNoroeste 12 9-NoroesteNoroeste 0.0 1010.9 1.2 91
First Page First Page First Page Last Page
Lineas por página
Página   de  
Compartir:  
En esta página podrá acceder, en forma gráfica y en tabla, a las observaciones horarias de las últimas 24 horas, así como a los valores extremos y acumulados desde las 00 horas del día hasta la hora de actualización indicada, obtenidos en la red de estaciones de AEMET. También podrá acceder a los resúmenes diarios de estas estaciones en los últimos 7 días.

En el mapa aparecen estaciones con valor númerico y otras representadas por un punto. En las primeras, al pasar el ratón, aparece un desplegable con la información completa de la estación. Las estaciones representadas por un punto son estaciones de la red climatológica, con transmisión de datos superior a la hora, por lo que al seleccionarlas pueden no aparecer los últimos datos.

Los datos presentados han sido únicamente sometidos a controles automáticos de calidad en tiempo real, por lo que no puede garantizarse la ausencia de errores.
© AEMET. Autorizado el uso de la información y su reproducción citando a AEMET como autora de la misma.